createdAt,value
2022-08-18T00:01:06.111Z,24.30
2022-08-18T00:03:57.249Z,24.20
2022-08-18T00:06:21.133Z,24.20
2022-08-18T00:08:47.891Z,24.20
2022-08-18T00:11:15.464Z,24.20
2022-08-18T00:13:42.203Z,24.10
2022-08-18T00:16:09.062Z,24.00
2022-08-18T00:18:35.814Z,23.80
2022-08-18T00:21:02.614Z,23.80
2022-08-18T00:23:30.707Z,23.90
2022-08-18T00:25:57.441Z,24.00
2022-08-18T00:28:26.320Z,24.00
2022-08-18T00:30:53.914Z,23.90
2022-08-18T00:33:21.287Z,23.90
2022-08-18T00:35:48.288Z,23.90
2022-08-18T00:38:24.441Z,23.90
2022-08-18T00:40:55.827Z,23.80
2022-08-18T00:43:29.360Z,23.90
2022-08-18T00:45:56.167Z,23.90
2022-08-18T00:48:24.691Z,23.90
2022-08-18T00:50:56.372Z,23.90
2022-08-18T00:53:28.289Z,23.90
2022-08-18T00:56:00.033Z,23.90
2022-08-18T00:58:32.180Z,23.90
2022-08-18T01:01:05.022Z,23.80
2022-08-18T01:03:34.102Z,23.80
2022-08-18T01:06:04.493Z,23.80
2022-08-18T01:08:31.512Z,23.80
2022-08-18T01:11:02.619Z,23.80
2022-08-18T01:13:31.453Z,23.80
2022-08-18T01:15:58.244Z,23.80
2022-08-18T01:18:25.050Z,23.70
2022-08-18T01:20:59.761Z,23.60
2022-08-18T01:23:29.443Z,23.60
2022-08-18T01:25:56.187Z,23.60
2022-08-18T01:28:22.978Z,23.70
2022-08-18T01:30:52.233Z,23.70
2022-08-18T01:33:19.347Z,23.70
2022-08-18T01:35:48.185Z,23.60
2022-08-18T01:38:15.276Z,23.60
2022-08-18T01:41:23.493Z,23.60
2022-08-18T01:43:30.315Z,23.60
2022-08-18T01:45:57.059Z,23.60
2022-08-18T01:48:23.797Z,23.60
2022-08-18T01:50:50.538Z,23.60
2022-08-18T01:53:17.379Z,23.60
2022-08-18T01:55:45.486Z,23.60
2022-08-18T01:58:12.299Z,23.50
2022-08-18T02:00:39.237Z,23.50
2022-08-18T02:03:08.524Z,23.50
2022-08-18T02:05:40.854Z,23.50
2022-08-18T02:08:09.411Z,23.50
2022-08-18T02:10:36.944Z,23.50
2022-08-18T02:13:05.373Z,23.50
2022-08-18T02:15:32.230Z,23.40
2022-08-18T02:17:59.036Z,23.40
2022-08-18T02:20:25.839Z,23.40
2022-08-18T02:22:53.245Z,23.40
2022-08-18T02:25:20.684Z,23.40
2022-08-18T02:27:47.555Z,23.50
2022-08-18T02:30:17.831Z,23.50
2022-08-18T02:32:44.957Z,23.50
2022-08-18T02:35:12.436Z,23.40
2022-08-18T02:37:50.457Z,23.40
2022-08-18T02:40:21.352Z,23.40
2022-08-18T02:42:48.775Z,23.40
2022-08-18T02:45:16.963Z,23.40
2022-08-18T02:47:44.515Z,23.30
2022-08-18T02:50:11.502Z,23.30
2022-08-18T02:52:38.402Z,23.30
2022-08-18T02:55:07.862Z,23.30
2022-08-18T02:57:34.768Z,23.20
2022-08-18T03:00:01.535Z,23.20
2022-08-18T03:02:29.784Z,23.20
2022-08-18T03:04:56.653Z,23.20
2022-08-18T03:07:23.380Z,23.20
2022-08-18T03:09:50.180Z,23.10
2022-08-18T03:12:16.904Z,23.10
2022-08-18T03:14:43.735Z,23.10
2022-08-18T03:17:10.544Z,23.10
2022-08-18T03:19:38.801Z,23.00
2022-08-18T03:22:16.088Z,23.00
2022-08-18T03:24:54.965Z,22.90
2022-08-18T03:27:21.720Z,22.90
2022-08-18T03:29:48.984Z,22.90
2022-08-18T03:32:15.774Z,22.90
2022-08-18T03:34:43.907Z,22.90
2022-08-18T03:37:10.696Z,22.90
2022-08-18T03:39:37.538Z,22.80
2022-08-18T03:42:04.643Z,22.80
2022-08-18T03:44:33.598Z,22.80
2022-08-18T03:47:01.005Z,22.80
2022-08-18T03:49:27.801Z,22.70
2022-08-18T03:51:56.098Z,22.70
2022-08-18T03:54:23.296Z,22.70
2022-08-18T03:56:50.019Z,22.70
2022-08-18T03:59:19.290Z,22.70
2022-08-18T04:01:48.171Z,22.70
2022-08-18T04:04:18.370Z,22.70
2022-08-18T04:06:47.686Z,22.70
2022-08-18T04:09:16.216Z,22.60
2022-08-18T04:11:44.558Z,22.30
2022-08-18T04:14:12.301Z,22.40
2022-08-18T04:16:39.169Z,22.40
2022-08-18T04:19:06.217Z,22.50
2022-08-18T04:21:35.549Z,22.40
2022-08-18T04:24:03.898Z,22.50
2022-08-18T04:26:33.079Z,22.50
2022-08-18T04:29:00.245Z,22.50
2022-08-18T04:31:28.511Z,22.40
2022-08-18T04:33:55.649Z,22.40
2022-08-18T04:36:22.610Z,22.30
2022-08-18T04:38:49.551Z,22.40
2022-08-18T04:41:17.028Z,22.30
2022-08-18T04:43:45.556Z,22.30
2022-08-18T04:46:12.299Z,22.40
2022-08-18T04:48:40.983Z,22.30
2022-08-18T04:51:10.395Z,22.30
2022-08-18T04:53:37.877Z,22.30
2022-08-18T04:56:04.817Z,22.30
2022-08-18T04:58:31.616Z,22.30
2022-08-18T05:01:01.471Z,22.30
2022-08-18T05:03:28.358Z,22.30
2022-08-18T05:05:56.256Z,22.30
2022-08-18T05:08:23.076Z,22.20
2022-08-18T05:10:53.555Z,22.20
2022-08-18T05:13:20.773Z,22.20
2022-08-18T05:16:10.048Z,22.20
2022-08-18T05:18:40.720Z,22.30
2022-08-18T05:21:10.587Z,22.30
2022-08-18T05:23:38.207Z,22.30
2022-08-18T05:26:04.968Z,22.30
2022-08-18T05:28:32.472Z,22.30
2022-08-18T05:31:00.572Z,22.30
2022-08-18T05:33:27.538Z,22.40
2022-08-18T05:36:02.458Z,22.40
2022-08-18T05:38:39.094Z,22.40
2022-08-18T05:41:14.000Z,22.40
2022-08-18T05:43:51.993Z,22.50
2022-08-18T05:46:24.092Z,22.50
2022-08-18T05:48:50.863Z,22.50
2022-08-18T05:51:26.425Z,22.50
2022-08-18T05:53:53.624Z,22.60
2022-08-18T05:56:25.970Z,22.60
2022-08-18T05:58:54.913Z,22.60
2022-08-18T06:01:25.478Z,22.60
2022-08-18T06:03:55.384Z,22.60
2022-08-18T06:06:27.101Z,22.60
2022-08-18T06:09:02.944Z,22.70
2022-08-18T06:11:29.711Z,22.70
2022-08-18T06:13:59.456Z,22.70
2022-08-18T06:16:42.326Z,22.70
2022-08-18T06:19:24.633Z,22.70
2022-08-18T06:21:59.572Z,22.70
2022-08-18T06:24:31.105Z,22.70
2022-08-18T06:27:07.070Z,22.80
2022-08-18T06:29:48.503Z,22.80
2022-08-18T06:32:27.567Z,22.80
2022-08-18T06:35:11.114Z,22.80
2022-08-18T06:37:48.119Z,22.80
2022-08-18T06:40:15.092Z,22.80
2022-08-18T06:42:42.269Z,22.80
2022-08-18T06:45:12.898Z,22.80
2022-08-18T06:47:44.698Z,22.80
2022-08-18T06:50:20.025Z,22.90
2022-08-18T06:52:54.721Z,22.90
2022-08-18T06:55:33.709Z,22.80
2022-08-18T06:58:02.745Z,22.90
2022-08-18T07:00:32.754Z,22.90
2022-08-18T07:03:05.026Z,22.90
2022-08-18T07:05:33.623Z,22.90
2022-08-18T07:08:13.491Z,22.90
2022-08-18T07:10:42.502Z,22.90
2022-08-18T07:13:21.078Z,22.80
2022-08-18T07:15:48.725Z,22.80
2022-08-18T07:18:23.747Z,22.80
2022-08-18T07:20:51.794Z,22.80
2022-08-18T07:23:27.277Z,22.80
2022-08-18T07:26:03.956Z,22.80
2022-08-18T07:28:33.909Z,22.90
2022-08-18T07:31:17.215Z,23.00
2022-08-18T07:33:50.645Z,23.00
2022-08-18T07:36:18.961Z,23.00
2022-08-18T07:38:50.283Z,23.10
2022-08-18T07:41:21.340Z,23.10
2022-08-18T07:43:58.430Z,23.20
2022-08-18T07:46:33.194Z,23.20
2022-08-18T07:49:01.290Z,23.30
2022-08-18T07:51:42.916Z,23.40
2022-08-18T07:54:47.524Z,23.40
2022-08-18T07:57:20.092Z,23.50
2022-08-18T07:59:54.289Z,23.60
2022-08-18T08:02:37.437Z,23.60
2022-08-18T08:05:17.248Z,23.60
2022-08-18T08:07:49.447Z,23.60
2022-08-18T08:10:33.171Z,23.60
2022-08-18T08:13:12.382Z,23.60
2022-08-18T08:15:50.261Z,23.70
2022-08-18T08:18:22.906Z,23.60
2022-08-18T08:20:53.262Z,23.70
2022-08-18T08:23:28.897Z,23.70
2022-08-18T08:26:08.202Z,23.70
2022-08-18T08:28:42.736Z,23.80
2022-08-18T08:31:35.268Z,23.80
2022-08-18T08:34:09.458Z,23.80
2022-08-18T08:36:40.755Z,23.80
2022-08-18T08:39:19.315Z,23.90
2022-08-18T08:41:52.644Z,23.90
2022-08-18T08:44:29.857Z,23.90
2022-08-18T08:47:01.395Z,23.90
2022-08-18T08:49:34.832Z,23.90
2022-08-18T08:52:06.687Z,24.00
2022-08-18T08:54:43.135Z,24.00
2022-08-18T08:57:14.475Z,24.00
2022-08-18T08:59:44.553Z,24.00
2022-08-18T09:02:47.226Z,24.00
2022-08-18T09:05:19.845Z,24.10
2022-08-18T09:08:12.073Z,24.10
2022-08-18T09:11:18.468Z,24.10
2022-08-18T09:14:09.358Z,24.20
2022-08-18T09:16:46.185Z,24.20
2022-08-18T09:19:28.021Z,24.20
2022-08-18T09:22:00.827Z,24.20
2022-08-18T09:24:31.858Z,24.20
2022-08-18T09:27:14.361Z,24.30
2022-08-18T09:29:53.026Z,24.30
2022-08-18T09:32:50.880Z,24.30
2022-08-18T09:35:36.692Z,24.40
2022-08-18T09:38:10.133Z,24.40
2022-08-18T09:43:38.075Z,24.50
2022-08-18T09:46:07.923Z,24.50
2022-08-18T09:48:36.102Z,24.50
2022-08-18T09:51:31.432Z,24.60
2022-08-18T09:54:20.819Z,24.60
2022-08-18T09:57:14.484Z,24.60
2022-08-18T09:59:55.470Z,24.60
2022-08-18T10:03:01.832Z,24.60
2022-08-18T10:05:31.575Z,24.70
2022-08-18T10:08:28.625Z,24.70
2022-08-18T10:11:09.442Z,24.70
2022-08-18T10:13:49.735Z,24.70
2022-08-18T10:16:24.222Z,24.70
2022-08-18T10:19:07.903Z,24.80
2022-08-18T10:22:05.538Z,24.80
2022-08-18T10:24:38.068Z,24.90
2022-08-18T10:27:07.571Z,24.80
2022-08-18T10:29:53.137Z,24.90
2022-08-18T10:32:40.142Z,24.90
2022-08-18T10:35:44.871Z,24.90
2022-08-18T10:38:16.145Z,24.90
2022-08-18T10:40:51.523Z,25.00
2022-08-18T10:43:46.152Z,25.00
2022-08-18T10:46:26.634Z,25.00
2022-08-18T10:52:21.477Z,25.10
2022-08-18T10:55:16.180Z,25.10
2022-08-18T10:58:32.104Z,25.10
2022-08-18T11:01:21.362Z,25.10
2022-08-18T11:04:14.243Z,25.20
2022-08-18T11:06:44.085Z,25.20
2022-08-18T11:09:12.307Z,25.20
2022-08-18T11:11:42.918Z,25.20
2022-08-18T11:14:38.223Z,25.30
2022-08-18T11:17:15.977Z,25.30
2022-08-18T11:19:45.067Z,25.30
2022-08-18T11:22:31.061Z,25.30
2022-08-18T11:25:03.303Z,25.40
2022-08-18T11:27:34.990Z,25.40
2022-08-18T11:30:05.146Z,25.40
2022-08-18T11:32:34.595Z,25.40
2022-08-18T11:35:05.545Z,25.50
2022-08-18T11:37:51.655Z,25.50
2022-08-18T11:41:10.962Z,25.50
2022-08-18T11:43:29.786Z,25.50
2022-08-18T11:45:59.989Z,25.60
2022-08-18T11:48:39.169Z,25.60
2022-08-18T11:51:23.487Z,25.60
2022-08-18T11:53:58.733Z,25.60
2022-08-18T11:59:53.660Z,25.60
2022-08-18T12:02:20.864Z,25.70
2022-08-18T12:07:51.109Z,25.90
2022-08-18T12:10:29.911Z,25.80
2022-08-18T12:12:59.105Z,25.80
2022-08-18T12:18:26.431Z,25.70
2022-08-18T12:20:56.446Z,25.70
2022-08-18T12:23:24.279Z,25.80
2022-08-18T12:25:51.634Z,25.80
2022-08-18T12:28:19.176Z,25.90
2022-08-18T12:30:47.353Z,25.80
2022-08-18T12:33:14.249Z,25.80
2022-08-18T12:35:42.237Z,25.80
2022-08-18T12:40:55.980Z,26.10
2022-08-18T12:43:22.956Z,26.00
2022-08-18T12:45:51.318Z,25.90
2022-08-18T12:48:22.304Z,25.80
2022-08-18T12:50:54.278Z,25.80
2022-08-18T12:53:29.757Z,25.80
2022-08-18T12:56:06.312Z,25.80
2022-08-18T12:58:36.336Z,25.80
2022-08-18T13:01:04.789Z,25.90
2022-08-18T13:03:35.277Z,26.00
2022-08-18T13:06:03.990Z,26.00
2022-08-18T13:08:33.524Z,25.90
2022-08-18T13:11:14.587Z,25.90
2022-08-18T13:13:53.319Z,26.00
2022-08-18T13:16:38.954Z,26.00
2022-08-18T13:19:13.663Z,26.00
2022-08-18T13:21:41.658Z,26.00
2022-08-18T13:24:10.382Z,26.00
2022-08-18T13:26:41.948Z,26.00
2022-08-18T13:29:10.272Z,26.00
2022-08-18T13:31:38.863Z,26.00
2022-08-18T13:34:06.574Z,26.00
2022-08-18T13:36:39.077Z,25.90
2022-08-18T13:39:06.739Z,25.90
2022-08-18T13:41:35.657Z,26.00
2022-08-18T13:44:03.528Z,26.00
2022-08-18T13:46:31.342Z,26.00
2022-08-18T13:48:59.584Z,25.90
2022-08-18T13:51:28.557Z,25.90
2022-08-18T13:56:42.505Z,25.90
2022-08-18T13:59:20.478Z,26.00
2022-08-18T14:01:52.499Z,26.00
2022-08-18T14:04:22.474Z,26.00
2022-08-18T14:06:56.372Z,26.00
2022-08-18T14:09:27.936Z,26.00
2022-08-18T14:12:05.105Z,26.00
2022-08-18T14:14:31.874Z,26.00
2022-08-18T14:16:58.596Z,26.00
2022-08-18T14:19:26.778Z,26.00
2022-08-18T14:21:55.782Z,26.00
2022-08-18T14:24:22.493Z,26.00
2022-08-18T14:26:51.892Z,26.00
2022-08-18T14:29:46.308Z,26.00
2022-08-18T14:32:07.008Z,26.00
2022-08-18T14:34:35.574Z,26.00
2022-08-18T14:37:03.044Z,26.00
2022-08-18T14:39:30.173Z,26.00
2022-08-18T14:41:56.949Z,26.00
2022-08-18T14:44:25.465Z,26.10
2022-08-18T14:46:58.681Z,26.10
2022-08-18T14:49:28.345Z,26.00
2022-08-18T14:51:58.345Z,26.00
2022-08-18T14:54:28.498Z,26.00
2022-08-18T14:56:56.936Z,26.00
2022-08-18T14:59:24.038Z,26.00
2022-08-18T15:01:52.449Z,26.00
2022-08-18T15:04:20.396Z,26.00
2022-08-18T15:06:56.430Z,26.00
2022-08-18T15:09:26.890Z,26.00
2022-08-18T15:11:54.573Z,26.00
2022-08-18T15:14:21.381Z,26.00
2022-08-18T15:16:59.651Z,26.00
2022-08-18T15:19:57.524Z,26.20
2022-08-18T15:22:13.448Z,26.10
2022-08-18T15:24:44.275Z,26.10
2022-08-18T15:27:19.618Z,26.00
2022-08-18T15:30:04.077Z,26.00
2022-08-18T15:32:30.921Z,26.00
2022-08-18T15:34:57.679Z,26.00
2022-08-18T15:37:24.603Z,26.00
2022-08-18T15:40:00.365Z,26.00
2022-08-18T15:42:27.253Z,26.00
2022-08-18T15:44:54.357Z,26.00
2022-08-18T15:47:21.603Z,26.00
2022-08-18T15:49:48.459Z,26.00
2022-08-18T15:52:17.491Z,26.00
2022-08-18T15:54:50.610Z,26.00
2022-08-18T15:57:39.116Z,26.00
2022-08-18T16:00:07.433Z,26.00
2022-08-18T16:02:40.005Z,26.00
2022-08-18T16:05:10.356Z,25.90
2022-08-18T16:07:41.114Z,25.90
2022-08-18T16:10:12.526Z,26.00
2022-08-18T16:12:46.106Z,25.90
2022-08-18T16:17:45.178Z,25.90
2022-08-18T16:20:14.667Z,25.90
2022-08-18T16:22:42.134Z,25.90
2022-08-18T16:25:09.562Z,25.90
2022-08-18T16:27:37.843Z,25.90
2022-08-18T16:30:07.542Z,25.90
2022-08-18T16:32:34.374Z,25.90
2022-08-18T16:35:01.109Z,25.90
2022-08-18T16:37:28.310Z,25.90
2022-08-18T16:39:55.155Z,25.90
2022-08-18T16:42:22.170Z,25.90
2022-08-18T16:44:49.140Z,25.90
2022-08-18T16:47:17.503Z,25.90
2022-08-18T16:49:44.456Z,25.80
2022-08-18T16:52:11.698Z,25.80
2022-08-18T16:54:38.452Z,25.80
2022-08-18T16:57:06.246Z,25.80
2022-08-18T17:03:04.849Z,25.80
2022-08-18T17:05:31.576Z,25.80
2022-08-18T17:07:58.312Z,25.80
2022-08-18T17:10:25.058Z,25.70
2022-08-18T17:12:53.798Z,25.70
2022-08-18T17:15:20.643Z,25.70
2022-08-18T17:17:47.372Z,25.70
2022-08-18T17:20:17.755Z,25.70
2022-08-18T17:22:46.019Z,25.60
2022-08-18T17:25:17.257Z,25.60
2022-08-18T17:27:46.957Z,25.60
2022-08-18T17:30:19.837Z,25.50
2022-08-18T17:32:51.317Z,25.50
2022-08-18T17:35:28.773Z,25.50
2022-08-18T17:38:00.707Z,25.40
2022-08-18T17:40:33.380Z,25.40
2022-08-18T17:43:01.218Z,25.40
2022-08-18T17:45:31.764Z,25.40
2022-08-18T17:48:06.650Z,25.30
2022-08-18T17:50:38.716Z,25.30
2022-08-18T17:53:06.681Z,25.30
2022-08-18T17:55:38.973Z,25.30
2022-08-18T17:58:10.005Z,25.20
2022-08-18T18:00:36.772Z,25.20
2022-08-18T18:03:03.901Z,25.20
2022-08-18T18:05:37.286Z,25.20
2022-08-18T18:08:04.634Z,25.20
2022-08-18T18:10:40.171Z,25.10
2022-08-18T18:13:13.719Z,25.10
2022-08-18T18:15:43.670Z,25.20
2022-08-18T18:18:29.184Z,25.10
2022-08-18T18:21:07.093Z,25.10
2022-08-18T18:23:37.547Z,25.10
2022-08-18T18:26:28.220Z,25.10
2022-08-18T18:29:28.937Z,25.00
2022-08-18T18:31:59.702Z,25.00
2022-08-18T18:34:31.852Z,25.00
2022-08-18T18:37:02.386Z,25.00
2022-08-18T18:39:34.328Z,25.00
2022-08-18T18:42:15.791Z,25.00
2022-08-18T18:44:51.657Z,25.00
2022-08-18T18:47:40.677Z,24.90
2022-08-18T18:50:12.628Z,24.90
2022-08-18T18:52:49.060Z,24.80
2022-08-18T18:55:19.726Z,24.80
2022-08-18T18:57:58.771Z,24.80
2022-08-18T19:00:36.767Z,24.80
2022-08-18T19:03:09.165Z,24.70
2022-08-18T19:05:43.401Z,24.60
2022-08-18T19:08:24.805Z,24.70
2022-08-18T19:10:59.372Z,24.60
2022-08-18T19:13:33.061Z,24.60
2022-08-18T19:16:08.857Z,24.60
2022-08-18T19:18:44.325Z,24.60
2022-08-18T19:22:03.642Z,24.60
2022-08-18T19:24:19.830Z,24.50
2022-08-18T19:26:51.206Z,24.50
2022-08-18T19:29:22.366Z,24.50
2022-08-18T19:31:55.423Z,24.50
2022-08-18T19:34:31.217Z,24.50
2022-08-18T19:37:04.056Z,24.40
2022-08-18T19:39:39.481Z,24.40
2022-08-18T19:42:11.421Z,24.40
2022-08-18T19:44:51.071Z,24.40
2022-08-18T19:47:32.969Z,24.40
2022-08-18T19:50:07.140Z,24.30
2022-08-18T19:52:49.618Z,24.30
2022-08-18T19:55:38.742Z,24.30
2022-08-18T19:58:35.215Z,24.30
2022-08-18T20:01:07.487Z,24.20
2022-08-18T20:03:56.432Z,24.20
2022-08-18T20:06:49.711Z,24.20
2022-08-18T20:09:39.891Z,24.20
2022-08-18T20:12:21.965Z,24.10
2022-08-18T20:15:01.417Z,24.10
2022-08-18T20:17:28.302Z,24.20
2022-08-18T20:20:11.646Z,24.10
2022-08-18T20:22:39.477Z,24.10
2022-08-18T20:25:24.354Z,24.10
2022-08-18T20:28:13.188Z,24.10
2022-08-18T20:30:56.100Z,24.10
2022-08-18T20:33:31.862Z,24.10
2022-08-18T20:36:06.876Z,24.00
2022-08-18T20:38:35.898Z,24.00
2022-08-18T20:41:26.725Z,24.00
2022-08-18T20:43:57.710Z,24.00
2022-08-18T20:46:36.805Z,23.90
2022-08-18T20:49:18.325Z,23.90
2022-08-18T20:51:52.121Z,23.90
2022-08-18T20:54:30.313Z,23.90
2022-08-18T20:57:01.820Z,23.90
2022-08-18T20:59:32.462Z,23.90
2022-08-18T21:02:03.422Z,23.80
2022-08-18T21:04:42.855Z,23.90
2022-08-18T21:07:16.906Z,23.80
2022-08-18T21:09:50.318Z,23.80
2022-08-18T21:12:22.024Z,23.80
2022-08-18T21:14:51.998Z,23.80
2022-08-18T21:17:20.625Z,23.80
2022-08-18T21:19:47.381Z,23.70
2022-08-18T21:22:14.206Z,23.80
2022-08-18T21:24:43.359Z,23.70
2022-08-18T21:27:17.226Z,23.80
2022-08-18T21:29:49.610Z,23.80
2022-08-18T21:32:19.308Z,23.70
2022-08-18T21:34:47.859Z,23.70
2022-08-18T21:37:17.373Z,23.80
2022-08-18T21:39:54.117Z,23.70
2022-08-18T21:42:24.351Z,23.70
2022-08-18T21:44:52.578Z,23.70
2022-08-18T21:47:23.753Z,23.60
2022-08-18T21:50:05.395Z,23.60
2022-08-18T21:52:32.160Z,23.60
2022-08-18T21:55:04.448Z,23.60
2022-08-18T21:57:48.130Z,23.60
2022-08-18T22:00:20.028Z,23.60
2022-08-18T22:02:47.714Z,23.60
2022-08-18T22:05:28.640Z,23.50
2022-08-18T22:08:18.429Z,23.50
2022-08-18T22:11:09.198Z,23.50
2022-08-18T22:13:47.147Z,23.50
2022-08-18T22:16:31.850Z,23.50
2022-08-18T22:19:12.007Z,23.50
2022-08-18T22:21:43.343Z,23.50
2022-08-18T22:24:14.933Z,23.50
2022-08-18T22:26:41.814Z,23.50
2022-08-18T22:29:13.208Z,23.50
2022-08-18T22:31:42.834Z,23.50
2022-08-18T22:34:13.610Z,23.50
2022-08-18T22:36:45.141Z,23.50
2022-08-18T22:39:17.112Z,23.50
2022-08-18T22:41:44.760Z,23.50
2022-08-18T22:44:11.499Z,23.50
2022-08-18T22:46:38.265Z,23.40
2022-08-18T22:49:05.052Z,23.40
2022-08-18T22:51:32.845Z,23.40
2022-08-18T22:54:00.968Z,23.40
2022-08-18T22:56:34.883Z,23.40
2022-08-18T22:59:13.453Z,23.40
2022-08-18T23:01:44.286Z,23.40
2022-08-18T23:04:11.776Z,23.30
2022-08-18T23:06:38.541Z,23.30
2022-08-18T23:09:06.759Z,23.30
2022-08-18T23:11:33.716Z,23.30
2022-08-18T23:14:01.815Z,23.20
2022-08-18T23:16:31.732Z,23.20
2022-08-18T23:18:59.458Z,23.20
2022-08-18T23:21:34.132Z,23.10
2022-08-18T23:24:04.164Z,23.20
2022-08-18T23:26:32.513Z,23.10
2022-08-18T23:28:59.270Z,23.10
2022-08-18T23:31:26.100Z,23.10
2022-08-18T23:33:52.865Z,23.10
2022-08-18T23:36:19.678Z,23.10
2022-08-18T23:38:46.486Z,23.00
2022-08-18T23:41:14.193Z,23.00
2022-08-18T23:43:42.846Z,23.00
2022-08-18T23:46:17.012Z,23.00
2022-08-18T23:48:43.819Z,22.90
2022-08-18T23:51:10.565Z,23.00
2022-08-18T23:53:37.284Z,22.90
2022-08-18T23:56:04.358Z,22.90
2022-08-18T23:58:31.094Z,22.90
